createdAt,value
2023-04-04T00:01:31.463Z,99823.69
2023-04-04T00:04:34.571Z,99814.56
2023-04-04T00:07:37.259Z,99837.22
2023-04-04T00:10:40.779Z,99835.84
2023-04-04T00:13:43.642Z,99834.84
2023-04-04T00:16:46.606Z,99820.13
2023-04-04T00:19:49.415Z,99836.56
2023-04-04T00:22:52.371Z,99834.91
2023-04-04T00:25:55.877Z,99835.06
2023-04-04T00:28:58.826Z,99834.81
2023-04-04T00:32:01.520Z,99821.66
2023-04-04T00:35:04.933Z,99816.47
2023-04-04T00:38:08.159Z,99824.63
2023-04-04T00:41:12.326Z,99813.06
2023-04-04T00:44:15.524Z,99824.91
2023-04-04T00:47:19.695Z,99820.72
2023-04-04T00:50:22.390Z,99816.28
2023-04-04T00:53:25.287Z,99809.06
2023-04-04T00:56:29.996Z,99813.69
2023-04-04T00:59:33.431Z,99805.28
2023-04-04T01:02:36.335Z,99812.88
2023-04-04T01:05:40.171Z,99804.19
2023-04-04T01:08:44.143Z,99799.44
2023-04-04T01:11:47.858Z,99796.13
2023-04-04T01:14:50.519Z,99798.97
2023-04-04T01:17:58.782Z,99787.63
2023-04-04T01:21:05.636Z,99765.78
2023-04-04T01:24:10.197Z,99778.63
2023-04-04T01:27:14.669Z,99776.97
2023-04-04T01:30:18.947Z,99763.47
2023-04-04T01:33:28.330Z,99753.75
2023-04-04T01:36:47.534Z,99738.28
2023-04-04T01:39:56.420Z,99727.84
2023-04-04T01:42:59.698Z,99733.28
2023-04-04T01:46:04.196Z,99725.53
2023-04-04T01:49:08.966Z,99726.25
2023-04-04T01:52:12.417Z,99711.56
2023-04-04T01:55:16.115Z,99721.63
2023-04-04T01:58:19.241Z,99726.81
2023-04-04T02:01:22.381Z,99714.97
2023-04-04T02:04:26.094Z,99720.50
2023-04-04T02:07:28.907Z,99719.22
2023-04-04T02:10:32.030Z,99713.38
2023-04-04T02:13:34.762Z,99704.97
2023-04-04T02:16:38.657Z,99699.50
2023-04-04T02:19:41.524Z,99698.06
2023-04-04T02:22:51.026Z,99700.06
2023-04-04T02:25:54.316Z,99691.00
2023-04-04T02:28:57.493Z,99693.22
2023-04-04T02:32:00.203Z,99696.37
2023-04-04T02:35:04.383Z,99699.59
2023-04-04T02:38:07.756Z,99684.62
2023-04-04T02:41:11.198Z,99689.91
2023-04-04T02:44:13.908Z,99684.34
2023-04-04T02:47:17.832Z,99666.03
2023-04-04T02:50:21.271Z,99675.84
2023-04-04T02:53:25.706Z,99692.22
2023-04-04T02:56:28.911Z,99690.53
2023-04-04T02:59:32.280Z,99687.31
2023-04-04T03:02:35.405Z,99684.25
2023-04-04T03:05:38.851Z,99668.63
2023-04-04T03:08:41.608Z,99670.31
2023-04-04T03:11:44.733Z,99684.09
2023-04-04T03:14:47.750Z,99679.28
2023-04-04T03:17:51.940Z,99692.50
2023-04-04T03:20:56.149Z,99692.59
2023-04-04T03:23:59.383Z,99685.00
2023-04-04T03:27:02.088Z,99702.66
2023-04-04T03:30:06.562Z,99702.38
2023-04-04T03:33:10.059Z,99695.72
2023-04-04T03:36:14.201Z,99691.91
2023-04-04T03:39:17.089Z,99703.94
2023-04-04T03:42:20.111Z,99710.31
2023-04-04T03:45:22.978Z,99707.09
2023-04-04T03:48:27.328Z,99702.56
2023-04-04T03:51:30.435Z,99706.38
2023-04-04T03:54:33.659Z,99710.06
2023-04-04T03:57:36.450Z,99706.53
2023-04-04T04:00:40.033Z,99702.66
2023-04-04T04:03:43.191Z,99705.91
2023-04-04T04:06:48.938Z,99703.56
2023-04-04T04:09:52.012Z,99697.75
2023-04-04T04:12:54.864Z,99710.59
2023-04-04T04:15:58.469Z,99704.25
2023-04-04T04:19:02.082Z,99710.06
2023-04-04T04:22:06.554Z,99695.72
2023-04-04T04:25:09.519Z,99706.63
2023-04-04T04:28:16.256Z,99711.84
2023-04-04T04:31:19.137Z,99712.66
2023-04-04T04:34:22.437Z,99703.25
2023-04-04T04:37:26.280Z,99702.88
2023-04-04T04:40:29.482Z,99693.16
2023-04-04T04:43:32.460Z,99677.00
2023-04-04T04:46:35.736Z,99687.78
2023-04-04T04:49:43.576Z,99686.13
2023-04-04T04:52:47.030Z,99686.41
2023-04-04T04:55:52.420Z,99693.03
2023-04-04T04:58:57.510Z,99665.59
2023-04-04T05:02:00.550Z,99683.50
2023-04-04T05:05:04.791Z,99685.81
2023-04-04T05:08:08.085Z,99690.44
2023-04-04T05:11:11.747Z,99704.94
2023-04-04T05:14:15.315Z,99708.75
2023-04-04T05:17:19.775Z,99689.31
2023-04-04T05:20:23.424Z,99713.88
2023-04-04T05:23:27.451Z,99711.50
2023-04-04T05:26:30.343Z,99716.22
2023-04-04T05:29:33.669Z,99717.53
2023-04-04T05:32:37.305Z,99726.41
2023-04-04T05:35:41.682Z,99716.16
2023-04-04T05:38:44.568Z,99708.50
2023-04-04T05:41:47.672Z,99721.78
2023-04-04T05:44:50.526Z,99719.16
2023-04-04T05:47:54.046Z,99711.72
2023-04-04T05:50:57.923Z,99718.34
2023-04-04T05:54:03.260Z,99728.06
2023-04-04T05:57:06.172Z,99725.56
2023-04-04T06:00:11.464Z,99712.13
2023-04-04T06:03:18.462Z,99724.00
2023-04-04T06:06:24.456Z,99712.75
2023-04-04T06:09:27.911Z,99722.47
2023-04-04T06:12:31.191Z,99699.94
2023-04-04T06:15:34.041Z,99701.78
2023-04-04T06:18:36.973Z,99722.47
2023-04-04T06:21:39.746Z,99723.19
2023-04-04T06:24:43.283Z,99720.47
2023-04-04T06:27:49.010Z,99738.19
2023-04-04T06:30:52.163Z,99720.59
2023-04-04T06:33:55.423Z,99726.47
2023-04-04T06:36:59.088Z,99701.66
2023-04-04T06:40:02.097Z,99702.41
2023-04-04T06:43:06.233Z,99697.44
2023-04-04T06:46:09.637Z,99683.50
2023-04-04T06:49:12.744Z,99692.00
2023-04-04T06:52:18.267Z,99688.66
2023-04-04T06:55:21.425Z,99691.00
2023-04-04T06:58:24.976Z,99673.16
2023-04-04T07:01:28.213Z,99665.78
2023-04-04T07:04:34.858Z,99673.63
2023-04-04T07:07:37.870Z,99681.53
2023-04-04T07:10:41.447Z,99684.03
2023-04-04T07:13:44.668Z,99692.38
2023-04-04T07:16:47.463Z,99677.72
2023-04-04T07:19:50.966Z,99688.94
2023-04-04T07:22:53.671Z,99718.34
2023-04-04T07:25:57.110Z,99703.00
2023-04-04T07:28:59.839Z,99711.94
2023-04-04T07:32:03.092Z,99713.78
2023-04-04T07:35:07.072Z,99729.50
2023-04-04T07:38:10.336Z,99725.13
2023-04-04T07:41:13.203Z,99715.00
2023-04-04T07:44:16.216Z,99707.03
2023-04-04T07:47:19.224Z,99717.97
2023-04-04T07:50:22.652Z,99730.62
2023-04-04T07:53:25.384Z,99734.13
2023-04-04T07:56:29.008Z,99732.03
2023-04-04T07:59:34.579Z,99731.44
2023-04-04T08:02:38.543Z,99739.88
2023-04-04T08:05:42.047Z,99711.31
2023-04-04T08:08:47.148Z,99732.34
2023-04-04T08:11:50.335Z,99724.16
2023-04-04T08:14:57.297Z,99700.41
2023-04-04T08:18:00.754Z,99700.12
2023-04-04T08:21:03.531Z,99705.06
2023-04-04T08:24:06.765Z,99697.47
2023-04-04T08:27:09.425Z,99713.44
2023-04-04T08:30:14.437Z,99704.88
2023-04-04T08:33:17.392Z,99700.12
2023-04-04T08:36:20.422Z,99699.50
2023-04-04T08:39:23.056Z,99665.63
2023-04-04T08:42:28.697Z,99669.78
2023-04-04T08:45:33.473Z,99673.87
2023-04-04T08:48:37.496Z,99676.38
2023-04-04T08:51:44.628Z,99664.06
2023-04-04T08:54:48.757Z,99679.03
2023-04-04T08:57:51.476Z,99669.84
2023-04-04T09:00:56.220Z,99674.72
2023-04-04T09:04:00.704Z,99664.59
2023-04-04T09:07:05.222Z,99671.06
2023-04-04T09:10:14.065Z,99679.72
2023-04-04T09:13:17.636Z,99670.97
2023-04-04T09:16:20.479Z,99672.91
2023-04-04T09:19:26.123Z,99665.75
2023-04-04T09:22:29.303Z,99661.59
2023-04-04T09:25:32.713Z,99671.59
2023-04-04T09:28:36.066Z,99668.59
2023-04-04T09:31:39.339Z,99682.09
2023-04-04T09:34:46.511Z,99671.31
2023-04-04T09:37:49.606Z,99657.47
2023-04-04T09:40:54.123Z,99658.47
2023-04-04T09:43:58.241Z,99662.91
2023-04-04T09:47:30.695Z,99662.81
2023-04-04T09:50:35.051Z,99648.44
2023-04-04T09:53:39.977Z,99672.28
2023-04-04T09:56:44.787Z,99663.19
2023-04-04T09:59:47.557Z,99655.94
2023-04-04T10:02:53.224Z,99674.50
2023-04-04T10:06:07.817Z,99664.38
2023-04-04T10:09:10.692Z,99674.50
2023-04-04T10:12:14.832Z,99664.59
2023-04-04T10:15:17.615Z,99657.28
2023-04-04T10:18:25.700Z,99643.47
2023-04-04T10:21:29.155Z,99663.41
2023-04-04T10:24:33.828Z,99660.91
2023-04-04T10:27:38.761Z,99651.94
2023-04-04T10:30:55.727Z,99661.59
2023-04-04T10:34:20.281Z,99650.41
2023-04-04T10:37:27.998Z,99640.59
2023-04-04T10:40:34.700Z,99646.03
2023-04-04T10:43:42.175Z,99635.97
2023-04-04T10:46:50.508Z,99639.91
2023-04-04T10:49:54.363Z,99638.03
2023-04-04T10:52:59.958Z,99632.00
2023-04-04T10:56:03.703Z,99643.09
2023-04-04T10:59:13.770Z,99632.75
2023-04-04T11:02:18.340Z,99645.94
2023-04-04T11:05:37.481Z,99643.81
2023-04-04T11:08:40.474Z,99629.88
2023-04-04T11:12:08.744Z,99628.25
2023-04-04T11:15:14.118Z,99643.47
2023-04-04T11:18:32.060Z,99643.97
2023-04-04T11:21:39.394Z,99639.91
2023-04-04T11:24:44.618Z,99633.56
2023-04-04T11:27:48.849Z,99642.63
2023-04-04T11:31:20.804Z,99627.06
2023-04-04T11:34:32.057Z,99620.81
2023-04-04T11:37:43.725Z,99624.94
2023-04-04T11:40:54.861Z,99617.38
2023-04-04T11:43:58.239Z,99629.53
2023-04-04T11:47:12.765Z,99621.22
2023-04-04T11:50:16.886Z,99611.34
2023-04-04T11:53:20.881Z,99604.72
2023-04-04T11:56:24.947Z,99611.22
2023-04-04T11:59:28.112Z,99623.41
2023-04-04T12:02:34.800Z,99623.38
2023-04-04T12:05:44.020Z,99623.59
2023-04-04T12:08:48.229Z,99627.66
2023-04-04T12:11:51.903Z,99620.91
2023-04-04T12:15:03.448Z,99607.94
2023-04-04T12:18:22.349Z,99611.47
2023-04-04T12:21:26.883Z,99612.28
2023-04-04T12:24:30.331Z,99614.56
2023-04-04T12:27:34.215Z,99607.22
2023-04-04T12:30:39.195Z,99602.38
2023-04-04T12:33:42.467Z,99580.28
2023-04-04T12:36:49.745Z,99587.06
2023-04-04T12:39:53.079Z,99586.19
2023-04-04T12:42:56.183Z,99598.13
2023-04-04T12:45:58.898Z,99593.28
2023-04-04T12:49:03.657Z,99566.25
2023-04-04T12:52:09.088Z,99576.41
2023-04-04T12:55:12.809Z,99589.50
2023-04-04T12:58:17.796Z,99567.09
2023-04-04T13:01:21.821Z,99577.84
2023-04-04T13:04:25.056Z,99587.16
2023-04-04T13:07:30.381Z,99583.00
2023-04-04T13:11:00.006Z,99590.59
2023-04-04T13:14:04.197Z,99591.41
2023-04-04T13:17:08.615Z,99586.06
2023-04-04T13:20:13.545Z,99586.56
2023-04-04T13:23:16.455Z,99576.38
2023-04-04T13:26:19.384Z,99578.03
2023-04-04T13:29:22.249Z,99566.63
2023-04-04T13:32:25.393Z,99576.19
2023-04-04T13:35:28.970Z,99561.75
2023-04-04T13:38:32.415Z,99575.94
2023-04-04T13:41:35.157Z,99568.50
2023-04-04T13:44:38.247Z,99563.31
2023-04-04T13:47:41.364Z,99559.31
2023-04-04T13:50:51.012Z,99560.47
2023-04-04T13:53:53.951Z,99564.72
2023-04-04T13:56:57.403Z,99550.34
2023-04-04T14:00:00.185Z,99573.47
2023-04-04T14:03:03.554Z,99561.91
2023-04-04T14:06:10.952Z,99558.59
2023-04-04T14:09:14.007Z,99558.37
2023-04-04T14:12:17.165Z,99561.28
2023-04-04T14:15:19.988Z,99570.84
2023-04-04T14:18:23.104Z,99565.53
2023-04-04T14:21:26.052Z,99570.59
2023-04-04T14:24:29.408Z,99566.72
2023-04-04T14:27:32.155Z,99566.22
2023-04-04T14:30:35.413Z,99566.56
2023-04-04T14:33:38.051Z,99567.03
2023-04-04T14:36:42.297Z,99575.56
2023-04-04T14:39:45.346Z,99557.31
2023-04-04T14:42:48.483Z,99571.97
2023-04-04T14:45:51.420Z,99566.75
2023-04-04T14:48:54.619Z,99580.50
2023-04-04T14:51:57.362Z,99576.38
2023-04-04T14:55:01.062Z,99573.53
2023-04-04T14:58:03.836Z,99575.06
2023-04-04T15:01:07.222Z,99579.97
2023-04-04T15:04:11.653Z,99580.56
2023-04-04T15:07:14.974Z,99576.31
2023-04-04T15:10:17.879Z,99587.75
2023-04-04T15:13:21.092Z,99586.97
2023-04-04T15:16:25.321Z,99591.84
2023-04-04T15:19:28.860Z,99585.56
2023-04-04T15:22:31.649Z,99587.09
2023-04-04T15:25:34.938Z,99572.47
2023-04-04T15:28:37.846Z,99589.81
2023-04-04T15:31:41.434Z,99592.81
2023-04-04T15:34:44.388Z,99589.87
2023-04-04T15:37:49.230Z,99592.09
2023-04-04T15:40:52.350Z,99581.03
2023-04-04T15:43:55.552Z,99598.72
2023-04-04T15:46:58.432Z,99597.00
2023-04-04T15:50:01.937Z,99588.34
2023-04-04T15:53:04.901Z,99611.22
2023-04-04T15:56:08.250Z,99615.03
2023-04-04T15:59:11.317Z,99607.38
2023-04-04T16:02:14.888Z,99592.94
2023-04-04T16:05:18.364Z,99601.41
2023-04-04T16:08:21.436Z,99608.09
2023-04-04T16:11:24.553Z,99612.22
2023-04-04T16:14:27.535Z,99608.59
2023-04-04T16:17:32.083Z,99617.09
2023-04-04T16:20:37.114Z,99609.91
2023-04-04T16:23:41.112Z,99611.59
2023-04-04T16:26:47.440Z,99612.94
2023-04-04T16:29:50.977Z,99605.50
2023-04-04T16:32:54.135Z,99610.53
2023-04-04T16:35:57.405Z,99615.75
2023-04-04T16:39:00.378Z,99614.97
2023-04-04T16:42:03.741Z,99611.50
2023-04-04T16:45:08.394Z,99619.44
2023-04-04T16:48:11.670Z,99610.81
2023-04-04T16:51:14.564Z,99614.78
2023-04-04T16:54:17.704Z,99609.25
2023-04-04T16:57:20.491Z,99615.28
2023-04-04T17:00:24.294Z,99614.66
2023-04-04T17:03:27.404Z,99618.25
2023-04-04T17:06:31.397Z,99616.66
2023-04-04T17:09:35.809Z,99626.84
2023-04-04T17:12:39.452Z,99619.84
2023-04-04T17:15:42.189Z,99616.59
2023-04-04T17:18:45.524Z,99625.31
2023-04-04T17:21:48.432Z,99626.38
2023-04-04T17:24:52.076Z,99638.88
2023-04-04T17:27:57.677Z,99625.78
2023-04-04T17:31:00.782Z,99626.44
2023-04-04T17:34:03.657Z,99632.50
2023-04-04T17:37:11.166Z,99637.22
2023-04-04T17:40:14.507Z,99636.19
2023-04-04T17:43:17.725Z,99620.03
2023-04-04T17:46:20.705Z,99648.28
2023-04-04T17:49:24.115Z,99633.16
2023-04-04T17:52:27.274Z,99657.84
2023-04-04T17:55:30.603Z,99650.37
2023-04-04T17:58:33.528Z,99652.44
2023-04-04T18:01:39.218Z,99662.81
2023-04-04T18:04:42.400Z,99662.22
2023-04-04T18:07:45.193Z,99671.16
2023-04-04T18:10:48.854Z,99668.22
2023-04-04T18:13:51.714Z,99674.47
2023-04-04T18:16:55.159Z,99681.75
2023-04-04T18:19:59.074Z,99680.50
2023-04-04T18:23:04.290Z,99676.75
2023-04-04T18:26:07.373Z,99681.72
2023-04-04T18:29:13.088Z,99695.22
2023-04-04T18:32:17.519Z,99689.00
2023-04-04T18:35:20.728Z,99675.72
2023-04-04T18:38:25.272Z,99698.13
2023-04-04T18:41:28.418Z,99690.03
2023-04-04T18:44:33.065Z,99709.72
2023-04-04T18:47:36.856Z,99715.09
2023-04-04T18:50:42.780Z,99708.69
2023-04-04T18:53:46.728Z,99715.94
2023-04-04T18:56:49.891Z,99715.50
2023-04-04T18:59:53.489Z,99713.84
2023-04-04T19:02:57.121Z,99701.81
2023-04-04T19:06:00.946Z,99717.97
2023-04-04T19:09:04.753Z,99728.13
2023-04-04T19:12:08.345Z,99727.28
2023-04-04T19:15:11.153Z,99737.84
2023-04-04T19:18:14.336Z,99724.56
2023-04-04T19:21:17.219Z,99734.91
2023-04-04T19:24:20.800Z,99737.19
2023-04-04T19:27:24.268Z,99744.84
2023-04-04T19:30:49.285Z,99730.94
2023-04-04T19:33:55.081Z,99740.06
2023-04-04T19:36:58.411Z,99742.53
2023-04-04T19:40:01.352Z,99747.50
2023-04-04T19:43:06.177Z,99729.22
2023-04-04T19:46:11.635Z,99738.53
2023-04-04T19:49:16.665Z,99734.59
2023-04-04T19:52:23.197Z,99751.75
2023-04-04T19:55:39.798Z,99756.69
2023-04-04T19:58:43.455Z,99761.88
2023-04-04T20:01:59.714Z,99765.59
2023-04-04T20:05:45.870Z,99765.00
2023-04-04T20:08:52.092Z,99765.37
2023-04-04T20:11:55.499Z,99759.94
2023-04-04T20:15:00.029Z,99769.69
2023-04-04T20:18:06.483Z,99770.09
2023-04-04T20:21:12.424Z,99765.88
2023-04-04T20:24:17.762Z,99786.38
2023-04-04T20:27:24.381Z,99765.22
2023-04-04T20:30:27.361Z,99776.41
2023-04-04T20:33:37.953Z,99780.72
2023-04-04T20:36:42.296Z,99792.75
2023-04-04T20:39:54.215Z,99782.78
2023-04-04T20:42:58.079Z,99795.78
2023-04-04T20:46:00.865Z,99785.78
2023-04-04T20:49:05.003Z,99793.09
2023-04-04T20:52:07.816Z,99803.63
2023-04-04T20:55:10.733Z,99799.84
2023-04-04T20:58:28.816Z,99795.06
2023-04-04T21:01:31.912Z,99810.09
2023-04-04T21:04:35.534Z,99814.62
2023-04-04T21:07:42.448Z,99823.69
2023-04-04T21:10:56.189Z,99825.91
2023-04-04T21:13:59.145Z,99830.03
2023-04-04T21:17:04.270Z,99831.06
2023-04-04T21:20:16.703Z,99815.44
2023-04-04T21:23:28.267Z,99835.53
2023-04-04T21:26:39.412Z,99821.56
2023-04-04T21:29:44.623Z,99816.50
2023-04-04T21:32:47.911Z,99834.94
2023-04-04T21:35:56.380Z,99835.78
2023-04-04T21:39:01.372Z,99841.28
2023-04-04T21:42:07.826Z,99836.91
2023-04-04T21:45:11.640Z,99817.47
2023-04-04T21:48:14.515Z,99846.13
2023-04-04T21:51:18.757Z,99824.72
2023-04-04T21:54:23.353Z,99839.66
2023-04-04T21:57:26.357Z,99846.81
2023-04-04T22:00:29.212Z,99822.91
2023-04-04T22:03:32.268Z,99843.66
2023-04-04T22:06:35.296Z,99841.53
2023-04-04T22:09:38.889Z,99834.59
2023-04-04T22:12:42.691Z,99844.50
2023-04-04T22:15:49.983Z,99835.34
2023-04-04T22:18:52.960Z,99828.97
2023-04-04T22:21:58.689Z,99855.09
2023-04-04T22:25:07.115Z,99850.25
2023-04-04T22:28:10.360Z,99853.97
2023-04-04T22:31:13.230Z,99861.56
2023-04-04T22:34:16.258Z,99854.63
2023-04-04T22:37:21.665Z,99863.97
2023-04-04T22:40:25.578Z,99868.41
2023-04-04T22:43:28.699Z,99870.63
2023-04-04T22:46:32.273Z,99869.59
2023-04-04T22:49:38.080Z,99865.72
2023-04-04T22:52:43.174Z,99862.38
2023-04-04T22:55:45.893Z,99866.91
2023-04-04T22:58:49.061Z,99865.44
2023-04-04T23:01:52.061Z,99865.97
2023-04-04T23:04:55.096Z,99851.56
2023-04-04T23:08:02.579Z,99866.44
2023-04-04T23:11:05.781Z,99871.06
2023-04-04T23:14:09.509Z,99877.16
2023-04-04T23:17:13.090Z,99876.03
2023-04-04T23:20:16.029Z,99872.88
2023-04-04T23:23:19.216Z,99880.91
2023-04-04T23:26:22.260Z,99867.22
2023-04-04T23:29:25.673Z,99861.63
2023-04-04T23:32:28.551Z,99860.78
2023-04-04T23:35:31.971Z,99865.63
2023-04-04T23:38:35.422Z,99878.53
2023-04-04T23:41:38.667Z,99874.22
2023-04-04T23:44:41.609Z,99876.41
2023-04-04T23:47:44.730Z,99876.12
2023-04-04T23:50:50.161Z,99871.00
2023-04-04T23:53:53.246Z,99883.09
2023-04-04T23:56:58.364Z,99866.25
